sensor_id;sensor_type;location;lat;lon;timestamp;P1;durP1;ratioP1;P2;durP2;ratioP2
28958;SDS011;16066;0.000;0.000;2023-06-24T05:31:36;10.70;;;5.90;;
28958;SDS011;16066;0.000;0.000;2023-06-24T05:34:01;9.30;;;5.50;;
28958;SDS011;16066;0.000;0.000;2023-06-24T05:36:27;7.10;;;4.93;;
28958;SDS011;16066;0.000;0.000;2023-06-24T05:38:53;6.50;;;4.93;;
28958;SDS011;16066;0.000;0.000;2023-06-24T05:41:19;6.90;;;5.27;;
28958;SDS011;16066;0.000;0.000;2023-06-24T05:43:44;6.53;;;5.20;;
28958;SDS011;16066;0.000;0.000;2023-06-24T05:46:10;7.40;;;5.50;;
28958;SDS011;16066;0.000;0.000;2023-06-24T05:48:36;7.20;;;5.27;;
28958;SDS011;16066;0.000;0.000;2023-06-24T05:51:02;6.77;;;5.07;;
28958;SDS011;16066;0.000;0.000;2023-06-24T05:53:27;8.83;;;5.10;;
28958;SDS011;16066;0.000;0.000;2023-06-24T05:55:53;8.10;;;6.27;;
28958;SDS011;16066;0.000;0.000;2023-06-24T05:58:19;9.90;;;5.60;;
28958;SDS011;16066;0.000;0.000;2023-06-24T06:00:44;9.90;;;6.00;;
28958;SDS011;16066;0.000;0.000;2023-06-24T06:03:10;6.40;;;4.83;;
28958;SDS011;16066;0.000;0.000;2023-06-24T06:05:35;7.40;;;5.43;;
28958;SDS011;16066;0.000;0.000;2023-06-24T06:08:01;10.83;;;4.97;;
28958;SDS011;16066;0.000;0.000;2023-06-24T06:10:26;8.40;;;5.93;;
28958;SDS011;16066;0.000;0.000;2023-06-24T06:12:52;8.80;;;5.73;;
28958;SDS011;16066;0.000;0.000;2023-06-24T06:15:18;7.97;;;5.70;;
28958;SDS011;16066;0.000;0.000;2023-06-24T06:17:45;9.30;;;6.07;;
28958;SDS011;16066;0.000;0.000;2023-06-24T06:20:11;8.60;;;6.37;;
28958;SDS011;16066;0.000;0.000;2023-06-24T06:22:36;7.73;;;5.87;;
28958;SDS011;16066;0.000;0.000;2023-06-24T06:25:04;6.23;;;5.63;;
28958;SDS011;16066;0.000;0.000;2023-06-24T06:27:30;9.03;;;6.10;;
28958;SDS011;16066;0.000;0.000;2023-06-24T06:29:56;11.40;;;6.20;;
28958;SDS011;16066;0.000;0.000;2023-06-24T06:32:21;6.93;;;5.53;;
28958;SDS011;16066;0.000;0.000;2023-06-24T06:34:47;8.70;;;5.60;;
28958;SDS011;16066;0.000;0.000;2023-06-24T06:37:12;8.00;;;6.10;;
28958;SDS011;16066;0.000;0.000;2023-06-24T06:39:38;7.37;;;6.23;;
28958;SDS011;16066;0.000;0.000;2023-06-24T06:42:04;6.30;;;5.60;;
28958;SDS011;16066;0.000;0.000;2023-06-24T06:44:29;9.90;;;6.10;;
28958;SDS011;16066;0.000;0.000;2023-06-24T06:46:55;9.40;;;6.13;;
28958;SDS011;16066;0.000;0.000;2023-06-24T06:49:20;10.27;;;6.50;;
28958;SDS011;16066;0.000;0.000;2023-06-24T06:51:47;11.40;;;6.20;;
28958;SDS011;16066;0.000;0.000;2023-06-24T06:54:12;7.13;;;5.90;;
28958;SDS011;16066;0.000;0.000;2023-06-24T06:56:38;7.53;;;5.80;;
28958;SDS011;16066;0.000;0.000;2023-06-24T06:59:04;8.90;;;6.57;;
28958;SDS011;16066;0.000;0.000;2023-06-24T07:01:30;10.60;;;6.37;;
28958;SDS011;16066;0.000;0.000;2023-06-24T07:03:55;7.47;;;5.93;;
28958;SDS011;16066;0.000;0.000;2023-06-24T07:06:21;8.97;;;5.70;;
28958;SDS011;16066;0.000;0.000;2023-06-24T07:08:46;7.30;;;5.67;;
28958;SDS011;16066;0.000;0.000;2023-06-24T07:11:12;13.83;;;7.03;;
28958;SDS011;16066;0.000;0.000;2023-06-24T07:13:37;11.33;;;7.47;;
28958;SDS011;16066;0.000;0.000;2023-06-24T07:16:03;8.67;;;6.40;;
28958;SDS011;16066;0.000;0.000;2023-06-24T07:18:29;8.07;;;6.97;;
28958;SDS011;16066;0.000;0.000;2023-06-24T07:20:55;9.30;;;6.97;;
28958;SDS011;16066;0.000;0.000;2023-06-24T07:23:21;15.23;;;7.23;;
28958;SDS011;16066;0.000;0.000;2023-06-24T07:25:47;12.00;;;6.57;;
28958;SDS011;16066;0.000;0.000;2023-06-24T07:28:12;12.80;;;6.80;;
28958;SDS011;16066;0.000;0.000;2023-06-24T07:30:38;7.60;;;6.60;;
28958;SDS011;16066;0.000;0.000;2023-06-24T07:33:04;16.10;;;7.37;;
28958;SDS011;16066;0.000;0.000;2023-06-24T07:35:31;11.23;;;7.30;;
28958;SDS011;16066;0.000;0.000;2023-06-24T07:37:57;10.67;;;7.07;;
28958;SDS011;16066;0.000;0.000;2023-06-24T07:40:23;8.70;;;7.77;;
28958;SDS011;16066;0.000;0.000;2023-06-24T07:42:48;10.27;;;7.47;;
28958;SDS011;16066;0.000;0.000;2023-06-24T07:45:14;7.80;;;7.00;;
28958;SDS011;16066;0.000;0.000;2023-06-24T07:47:40;12.73;;;6.93;;
28958;SDS011;16066;0.000;0.000;2023-06-24T07:50:05;12.80;;;7.80;;
28958;SDS011;16066;0.000;0.000;2023-06-24T07:52:31;11.30;;;8.87;;
28958;SDS011;16066;0.000;0.000;2023-06-24T07:54:57;13.13;;;7.00;;
28958;SDS011;16066;0.000;0.000;2023-06-24T07:57:23;11.53;;;8.10;;
28958;SDS011;16066;0.000;0.000;2023-06-24T07:59:49;11.03;;;8.53;;
28958;SDS011;16066;0.000;0.000;2023-06-24T08:02:14;14.67;;;10.17;;
28958;SDS011;16066;0.000;0.000;2023-06-24T08:04:40;10.50;;;8.43;;
28958;SDS011;16066;0.000;0.000;2023-06-24T08:07:05;14.97;;;9.87;;
28958;SDS011;16066;0.000;0.000;2023-06-24T08:09:31;17.03;;;8.63;;
28958;SDS011;16066;0.000;0.000;2023-06-24T08:11:56;11.77;;;8.70;;
28958;SDS011;16066;0.000;0.000;2023-06-24T08:14:22;11.13;;;8.00;;
28958;SDS011;16066;0.000;0.000;2023-06-24T08:16:48;12.30;;;9.37;;
28958;SDS011;16066;0.000;0.000;2023-06-24T08:19:13;18.20;;;8.43;;
28958;SDS011;16066;0.000;0.000;2023-06-24T08:21:39;10.80;;;7.87;;
28958;SDS011;16066;0.000;0.000;2023-06-24T08:24:05;14.50;;;8.63;;
28958;SDS011;16066;0.000;0.000;2023-06-24T08:26:32;11.20;;;7.57;;
28958;SDS011;16066;0.000;0.000;2023-06-24T08:28:57;12.30;;;6.60;;
28958;SDS011;16066;0.000;0.000;2023-06-24T08:31:24;20.33;;;7.80;;
28958;SDS011;16066;0.000;0.000;2023-06-24T08:33:53;11.13;;;8.30;;
28958;SDS011;16066;0.000;0.000;2023-06-24T08:36:21;15.30;;;9.40;;
28958;SDS011;16066;0.000;0.000;2023-06-24T08:38:48;10.87;;;7.43;;
28958;SDS011;16066;0.000;0.000;2023-06-24T08:41:14;11.10;;;8.03;;
28958;SDS011;16066;0.000;0.000;2023-06-24T08:43:39;14.27;;;8.70;;
28958;SDS011;16066;0.000;0.000;2023-06-24T08:46:05;11.10;;;7.43;;
28958;SDS011;16066;0.000;0.000;2023-06-24T08:48:31;10.50;;;7.00;;
28958;SDS011;16066;0.000;0.000;2023-06-24T08:51:04;9.13;;;6.60;;
28958;SDS011;16066;0.000;0.000;2023-06-24T08:53:33;9.70;;;6.50;;
28958;SDS011;16066;0.000;0.000;2023-06-24T08:56:00;8.53;;;6.70;;
28958;SDS011;16066;0.000;0.000;2023-06-24T08:58:26;10.60;;;7.50;;
28958;SDS011;16066;0.000;0.000;2023-06-24T09:00:52;9.63;;;7.57;;
28958;SDS011;16066;0.000;0.000;2023-06-24T09:03:18;12.30;;;7.13;;
28958;SDS011;16066;0.000;0.000;2023-06-24T09:05:43;11.13;;;6.80;;
28958;SDS011;16066;0.000;0.000;2023-06-24T09:08:09;8.43;;;5.90;;
28958;SDS011;16066;0.000;0.000;2023-06-24T09:10:35;10.27;;;6.20;;
28958;SDS011;16066;0.000;0.000;2023-06-24T09:13:02;9.07;;;5.80;;
28958;SDS011;16066;0.000;0.000;2023-06-24T09:15:29;9.13;;;6.93;;
28958;SDS011;16066;0.000;0.000;2023-06-24T09:17:58;9.37;;;6.50;;
28958;SDS011;16066;0.000;0.000;2023-06-24T09:20:27;9.97;;;5.80;;
28958;SDS011;16066;0.000;0.000;2023-06-24T09:22:58;10.67;;;5.50;;
28958;SDS011;16066;0.000;0.000;2023-06-24T09:25:24;8.90;;;6.03;;
28958;SDS011;16066;0.000;0.000;2023-06-24T09:27:50;7.77;;;5.90;;
28958;SDS011;16066;0.000;0.000;2023-06-24T09:30:20;7.30;;;5.30;;
28958;SDS011;16066;0.000;0.000;2023-06-24T09:32:50;7.03;;;5.43;;
28958;SDS011;16066;0.000;0.000;2023-06-24T09:35:20;7.30;;;5.23;;
28958;SDS011;16066;0.000;0.000;2023-06-24T09:40:19;13.60;;;5.70;;
28958;SDS011;16066;0.000;0.000;2023-06-24T09:42:51;11.97;;;5.70;;
28958;SDS011;16066;0.000;0.000;2023-06-24T09:45:25;9.43;;;5.93;;
28958;SDS011;16066;0.000;0.000;2023-06-24T09:47:52;12.50;;;6.47;;
28958;SDS011;16066;0.000;0.000;2023-06-24T09:50:18;8.07;;;5.30;;
28958;SDS011;16066;0.000;0.000;2023-06-24T09:52:44;8.43;;;5.27;;
28958;SDS011;16066;0.000;0.000;2023-06-24T09:55:12;6.70;;;5.17;;
28958;SDS011;16066;0.000;0.000;2023-06-24T09:57:39;12.33;;;5.83;;
28958;SDS011;16066;0.000;0.000;2023-06-24T10:00:07;6.87;;;5.10;;
28958;SDS011;16066;0.000;0.000;2023-06-24T10:02:35;7.90;;;5.43;;
28958;SDS011;16066;0.000;0.000;2023-06-24T10:05:01;8.70;;;5.23;;
28958;SDS011;16066;0.000;0.000;2023-06-24T10:07:27;9.27;;;5.50;;
28958;SDS011;16066;0.000;0.000;2023-06-24T10:09:53;11.67;;;5.17;;
28958;SDS011;16066;0.000;0.000;2023-06-24T10:12:19;8.37;;;5.03;;
28958;SDS011;16066;0.000;0.000;2023-06-24T10:14:45;12.13;;;6.10;;
28958;SDS011;16066;0.000;0.000;2023-06-24T10:17:11;20.33;;;5.33;;
28958;SDS011;16066;0.000;0.000;2023-06-24T10:19:38;8.97;;;5.33;;
28958;SDS011;16066;0.000;0.000;2023-06-24T10:22:07;7.13;;;4.47;;
28958;SDS011;16066;0.000;0.000;2023-06-24T10:24:38;7.13;;;5.20;;
28958;SDS011;16066;0.000;0.000;2023-06-24T10:27:08;10.57;;;5.60;;
28958;SDS011;16066;0.000;0.000;2023-06-24T10:29:38;8.20;;;4.67;;
28958;SDS011;16066;0.000;0.000;2023-06-24T10:32:07;7.57;;;4.77;;
28958;SDS011;16066;0.000;0.000;2023-06-24T10:34:34;8.50;;;5.07;;
28958;SDS011;16066;0.000;0.000;2023-06-24T10:44:55;11.30;;;5.90;;
28958;SDS011;16066;0.000;0.000;2023-06-24T10:47:25;10.77;;;5.80;;
28958;SDS011;16066;0.000;0.000;2023-06-24T10:49:52;11.40;;;5.50;;
28958;SDS011;16066;0.000;0.000;2023-06-24T10:52:19;15.47;;;5.80;;
28958;SDS011;16066;0.000;0.000;2023-06-24T10:54:46;13.00;;;6.00;;
28958;SDS011;16066;0.000;0.000;2023-06-24T10:57:12;25.33;;;6.60;;
28958;SDS011;16066;0.000;0.000;2023-06-24T10:59:47;8.80;;;5.90;;
28958;SDS011;16066;0.000;0.000;2023-06-24T11:02:14;11.50;;;6.13;;
28958;SDS011;16066;0.000;0.000;2023-06-24T11:04:44;12.87;;;5.80;;
28958;SDS011;16066;0.000;0.000;2023-06-24T11:07:15;11.50;;;5.83;;
28958;SDS011;16066;0.000;0.000;2023-06-24T11:09:47;9.63;;;5.07;;
28958;SDS011;16066;0.000;0.000;2023-06-24T11:12:14;9.97;;;5.13;;
28958;SDS011;16066;0.000;0.000;2023-06-24T11:14:40;7.93;;;4.50;;
28958;SDS011;16066;0.000;0.000;2023-06-24T11:17:05;15.27;;;5.27;;
28958;SDS011;16066;0.000;0.000;2023-06-24T11:19:31;7.80;;;4.27;;
28958;SDS011;16066;0.000;0.000;2023-06-24T11:22:00;6.77;;;4.00;;
28958;SDS011;16066;0.000;0.000;2023-06-24T11:24:29;9.20;;;4.80;;
28958;SDS011;16066;0.000;0.000;2023-06-24T11:26:55;5.40;;;4.13;;
28958;SDS011;16066;0.000;0.000;2023-06-24T11:29:22;9.50;;;4.23;;
28958;SDS011;16066;0.000;0.000;2023-06-24T11:31:50;6.07;;;4.00;;
28958;SDS011;16066;0.000;0.000;2023-06-24T11:34:16;5.13;;;3.70;;
28958;SDS011;16066;0.000;0.000;2023-06-24T11:36:42;4.90;;;3.50;;
28958;SDS011;16066;0.000;0.000;2023-06-24T11:39:08;13.90;;;4.10;;
28958;SDS011;16066;0.000;0.000;2023-06-24T11:41:33;5.43;;;3.43;;
28958;SDS011;16066;0.000;0.000;2023-06-24T11:43:59;4.30;;;3.60;;
28958;SDS011;16066;0.000;0.000;2023-06-24T11:46:28;6.00;;;3.53;;
28958;SDS011;16066;0.000;0.000;2023-06-24T11:49:05;4.90;;;3.50;;
28958;SDS011;16066;0.000;0.000;2023-06-24T11:51:31;4.03;;;3.63;;
28958;SDS011;16066;0.000;0.000;2023-06-24T11:54:04;7.37;;;4.00;;
28958;SDS011;16066;0.000;0.000;2023-06-24T11:56:33;7.10;;;3.40;;
28958;SDS011;16066;0.000;0.000;2023-06-24T11:59:19;8.00;;;4.20;;
28958;SDS011;16066;0.000;0.000;2023-06-24T12:01:52;5.93;;;3.60;;
28958;SDS011;16066;0.000;0.000;2023-06-24T12:04:23;6.20;;;3.80;;
28958;SDS011;16066;0.000;0.000;2023-06-24T12:06:53;8.20;;;4.53;;
28958;SDS011;16066;0.000;0.000;2023-06-24T12:09:19;6.83;;;3.90;;
28958;SDS011;16066;0.000;0.000;2023-06-24T12:11:45;4.73;;;2.93;;
28958;SDS011;16066;0.000;0.000;2023-06-24T12:14:10;4.73;;;3.67;;
28958;SDS011;16066;0.000;0.000;2023-06-24T12:16:36;11.77;;;4.50;;
28958;SDS011;16066;0.000;0.000;2023-06-24T12:19:02;10.23;;;3.37;;
28958;SDS011;16066;0.000;0.000;2023-06-24T12:21:28;8.63;;;3.60;;
28958;SDS011;16066;0.000;0.000;2023-06-24T12:23:53;7.80;;;3.83;;
28958;SDS011;16066;0.000;0.000;2023-06-24T12:26:19;5.37;;;3.50;;
28958;SDS011;16066;0.000;0.000;2023-06-24T12:28:44;3.97;;;3.60;;
28958;SDS011;16066;0.000;0.000;2023-06-24T12:31:10;4.83;;;3.80;;
28958;SDS011;16066;0.000;0.000;2023-06-24T12:33:36;5.00;;;3.57;;
28958;SDS011;16066;0.000;0.000;2023-06-24T12:36:02;4.17;;;3.53;;
28958;SDS011;16066;0.000;0.000;2023-06-24T12:38:27;5.40;;;2.97;;
28958;SDS011;16066;0.000;0.000;2023-06-24T12:40:53;4.20;;;3.40;;
28958;SDS011;16066;0.000;0.000;2023-06-24T12:43:18;4.93;;;3.53;;
28958;SDS011;16066;0.000;0.000;2023-06-24T12:45:44;5.40;;;4.23;;
28958;SDS011;16066;0.000;0.000;2023-06-24T12:48:10;3.70;;;3.23;;
28958;SDS011;16066;0.000;0.000;2023-06-24T12:50:38;4.73;;;3.47;;
28958;SDS011;16066;0.000;0.000;2023-06-24T12:53:04;4.60;;;2.70;;
28958;SDS011;16066;0.000;0.000;2023-06-24T12:55:30;6.53;;;3.93;;
28958;SDS011;16066;0.000;0.000;2023-06-24T12:57:56;4.60;;;3.43;;
28958;SDS011;16066;0.000;0.000;2023-06-24T13:00:23;4.47;;;3.40;;
28958;SDS011;16066;0.000;0.000;2023-06-24T13:02:49;3.37;;;2.90;;
28958;SDS011;16066;0.000;0.000;2023-06-24T13:05:15;3.40;;;3.10;;
28958;SDS011;16066;0.000;0.000;2023-06-24T13:07:42;7.23;;;3.00;;
28958;SDS011;16066;0.000;0.000;2023-06-24T13:10:08;5.33;;;3.07;;
28958;SDS011;16066;0.000;0.000;2023-06-24T13:12:34;4.17;;;3.23;;
28958;SDS011;16066;0.000;0.000;2023-06-24T13:15:00;4.83;;;2.50;;
28958;SDS011;16066;0.000;0.000;2023-06-24T13:17:26;3.67;;;2.90;;
28958;SDS011;16066;0.000;0.000;2023-06-24T13:19:52;2.97;;;2.67;;
28958;SDS011;16066;0.000;0.000;2023-06-24T13:22:18;4.47;;;3.30;;
28958;SDS011;16066;0.000;0.000;2023-06-24T13:24:44;3.03;;;2.73;;
28958;SDS011;16066;0.000;0.000;2023-06-24T13:27:10;3.90;;;2.67;;
28958;SDS011;16066;0.000;0.000;2023-06-24T13:29:36;5.67;;;2.90;;
28958;SDS011;16066;0.000;0.000;2023-06-24T13:32:01;5.83;;;3.10;;
28958;SDS011;16066;0.000;0.000;2023-06-24T13:34:27;4.60;;;3.13;;
28958;SDS011;16066;0.000;0.000;2023-06-24T13:36:53;3.83;;;3.47;;
28958;SDS011;16066;0.000;0.000;2023-06-24T13:39:19;4.10;;;2.80;;
28958;SDS011;16066;0.000;0.000;2023-06-24T13:41:47;3.77;;;3.00;;
28958;SDS011;16066;0.000;0.000;2023-06-24T13:44:13;3.00;;;2.60;;
28958;SDS011;16066;0.000;0.000;2023-06-24T13:46:38;4.03;;;2.97;;
28958;SDS011;16066;0.000;0.000;2023-06-24T13:49:04;4.73;;;2.80;;
28958;SDS011;16066;0.000;0.000;2023-06-24T13:51:30;3.17;;;2.63;;
28958;SDS011;16066;0.000;0.000;2023-06-24T13:53:55;3.27;;;2.80;;
28958;SDS011;16066;0.000;0.000;2023-06-24T13:56:21;3.50;;;2.77;;
28958;SDS011;16066;0.000;0.000;2023-06-24T13:58:49;5.83;;;2.93;;
28958;SDS011;16066;0.000;0.000;2023-06-24T14:01:15;6.10;;;2.87;;
28958;SDS011;16066;0.000;0.000;2023-06-24T14:03:41;7.83;;;3.10;;
28958;SDS011;16066;0.000;0.000;2023-06-24T14:06:07;5.20;;;3.20;;
28958;SDS011;16066;0.000;0.000;2023-06-24T14:08:33;7.63;;;3.03;;
28958;SDS011;16066;0.000;0.000;2023-06-24T14:10:59;6.53;;;3.03;;
28958;SDS011;16066;0.000;0.000;2023-06-24T14:13:25;27.77;;;3.70;;
28958;SDS011;16066;0.000;0.000;2023-06-24T14:15:51;3.73;;;2.87;;
28958;SDS011;16066;0.000;0.000;2023-06-24T14:18:17;6.40;;;2.70;;
28958;SDS011;16066;0.000;0.000;2023-06-24T14:20:43;7.20;;;3.00;;
28958;SDS011;16066;0.000;0.000;2023-06-24T14:23:08;6.50;;;3.07;;
28958;SDS011;16066;0.000;0.000;2023-06-24T14:25:34;4.10;;;3.10;;
28958;SDS011;16066;0.000;0.000;2023-06-24T14:28:02;4.40;;;2.97;;
28958;SDS011;16066;0.000;0.000;2023-06-24T14:30:28;6.23;;;2.73;;
28958;SDS011;16066;0.000;0.000;2023-06-24T14:32:54;3.80;;;2.80;;
28958;SDS011;16066;0.000;0.000;2023-06-24T14:35:19;3.83;;;2.50;;
28958;SDS011;16066;0.000;0.000;2023-06-24T14:37:45;4.93;;;3.20;;
28958;SDS011;16066;0.000;0.000;2023-06-24T14:40:10;7.23;;;3.10;;
28958;SDS011;16066;0.000;0.000;2023-06-24T14:42:36;3.63;;;2.70;;
28958;SDS011;16066;0.000;0.000;2023-06-24T14:45:01;6.47;;;3.50;;
28958;SDS011;16066;0.000;0.000;2023-06-24T14:47:27;4.33;;;3.13;;
28958;SDS011;16066;0.000;0.000;2023-06-24T14:49:53;4.00;;;2.73;;
28958;SDS011;16066;0.000;0.000;2023-06-24T14:52:18;4.40;;;3.10;;
28958;SDS011;16066;0.000;0.000;2023-06-24T14:54:46;4.20;;;3.00;;
28958;SDS011;16066;0.000;0.000;2023-06-24T14:57:12;4.33;;;2.83;;
28958;SDS011;16066;0.000;0.000;2023-06-24T14:59:37;6.13;;;3.40;;
28958;SDS011;16066;0.000;0.000;2023-06-24T15:02:03;3.70;;;2.97;;
28958;SDS011;16066;0.000;0.000;2023-06-24T15:04:28;8.03;;;2.50;;
28958;SDS011;16066;0.000;0.000;2023-06-24T15:06:54;7.10;;;3.73;;
28958;SDS011;16066;0.000;0.000;2023-06-24T15:09:21;3.53;;;3.00;;
28958;SDS011;16066;0.000;0.000;2023-06-24T15:11:47;3.40;;;3.10;;
28958;SDS011;16066;0.000;0.000;2023-06-24T15:14:13;4.17;;;2.70;;
28958;SDS011;16066;0.000;0.000;2023-06-24T15:16:38;4.57;;;3.37;;
28958;SDS011;16066;0.000;0.000;2023-06-24T15:19:03;3.77;;;2.50;;
28958;SDS011;16066;0.000;0.000;2023-06-24T15:21:29;5.90;;;3.00;;
28958;SDS011;16066;0.000;0.000;2023-06-24T15:23:54;4.13;;;3.10;;
28958;SDS011;16066;0.000;0.000;2023-06-24T15:26:20;4.93;;;2.70;;
28958;SDS011;16066;0.000;0.000;2023-06-24T15:28:45;9.97;;;3.23;;
28958;SDS011;16066;0.000;0.000;2023-06-24T15:31:11;6.90;;;3.00;;
28958;SDS011;16066;0.000;0.000;2023-06-24T15:33:36;9.30;;;3.43;;
28958;SDS011;16066;0.000;0.000;2023-06-24T15:36:02;3.27;;;2.80;;
28958;SDS011;16066;0.000;0.000;2023-06-24T15:38:28;5.83;;;3.30;;
28958;SDS011;16066;0.000;0.000;2023-06-24T15:40:53;7.10;;;3.37;;
28958;SDS011;16066;0.000;0.000;2023-06-24T15:43:19;4.43;;;3.03;;
28958;SDS011;16066;0.000;0.000;2023-06-24T15:45:44;7.30;;;2.90;;
28958;SDS011;16066;0.000;0.000;2023-06-24T15:48:10;5.53;;;2.93;;
28958;SDS011;16066;0.000;0.000;2023-06-24T15:50:35;3.93;;;3.20;;
28958;SDS011;16066;0.000;0.000;2023-06-24T15:53:01;4.17;;;2.77;;
28958;SDS011;16066;0.000;0.000;2023-06-24T15:55:27;3.83;;;3.07;;
28958;SDS011;16066;0.000;0.000;2023-06-24T15:57:53;3.50;;;2.80;;
28958;SDS011;16066;0.000;0.000;2023-06-24T16:00:18;4.83;;;3.03;;
28958;SDS011;16066;0.000;0.000;2023-06-24T16:02:44;7.50;;;3.73;;
28958;SDS011;16066;0.000;0.000;2023-06-24T16:05:09;5.10;;;3.70;;
28958;SDS011;16066;0.000;0.000;2023-06-24T16:07:35;5.27;;;3.03;;
28958;SDS011;16066;0.000;0.000;2023-06-24T16:10:01;3.67;;;2.60;;
28958;SDS011;16066;0.000;0.000;2023-06-24T16:12:28;4.80;;;3.50;;
28958;SDS011;16066;0.000;0.000;2023-06-24T16:14:53;5.50;;;3.33;;
28958;SDS011;16066;0.000;0.000;2023-06-24T16:17:19;5.47;;;3.30;;
28958;SDS011;16066;0.000;0.000;2023-06-24T16:19:45;3.10;;;2.80;;
28958;SDS011;16066;0.000;0.000;2023-06-24T16:22:10;4.77;;;2.97;;
28958;SDS011;16066;0.000;0.000;2023-06-24T16:24:36;7.43;;;3.00;;
28958;SDS011;16066;0.000;0.000;2023-06-24T16:27:02;4.57;;;3.27;;
28958;SDS011;16066;0.000;0.000;2023-06-24T16:29:27;4.30;;;3.20;;
28958;SDS011;16066;0.000;0.000;2023-06-24T16:31:53;2.93;;;2.43;;
28958;SDS011;16066;0.000;0.000;2023-06-24T16:34:18;3.87;;;2.90;;
28958;SDS011;16066;0.000;0.000;2023-06-24T16:36:44;3.13;;;2.33;;
28958;SDS011;16066;0.000;0.000;2023-06-24T16:39:09;4.90;;;2.87;;
28958;SDS011;16066;0.000;0.000;2023-06-24T16:41:35;3.47;;;2.70;;
28958;SDS011;16066;0.000;0.000;2023-06-24T16:44:00;2.60;;;2.13;;
28958;SDS011;16066;0.000;0.000;2023-06-24T16:46:26;5.33;;;2.70;;
28958;SDS011;16066;0.000;0.000;2023-06-24T16:48:52;4.43;;;2.93;;
28958;SDS011;16066;0.000;0.000;2023-06-24T16:51:18;3.40;;;2.67;;
28958;SDS011;16066;0.000;0.000;2023-06-24T16:53:44;4.00;;;2.83;;
28958;SDS011;16066;0.000;0.000;2023-06-24T16:56:09;6.47;;;3.40;;
28958;SDS011;16066;0.000;0.000;2023-06-24T16:58:35;8.93;;;3.57;;
28958;SDS011;16066;0.000;0.000;2023-06-24T17:01:01;5.07;;;3.20;;
28958;SDS011;16066;0.000;0.000;2023-06-24T17:03:26;6.93;;;2.90;;
28958;SDS011;16066;0.000;0.000;2023-06-24T17:05:52;4.63;;;2.70;;
28958;SDS011;16066;0.000;0.000;2023-06-24T17:08:17;6.40;;;2.63;;
28958;SDS011;16066;0.000;0.000;2023-06-24T17:10:44;5.27;;;3.10;;
28958;SDS011;16066;0.000;0.000;2023-06-24T17:13:09;4.17;;;2.60;;
28958;SDS011;16066;0.000;0.000;2023-06-24T17:15:35;5.90;;;2.90;;
28958;SDS011;16066;0.000;0.000;2023-06-24T17:18:00;8.93;;;2.73;;
28958;SDS011;16066;0.000;0.000;2023-06-24T17:20:26;5.80;;;3.03;;
28958;SDS011;16066;0.000;0.000;2023-06-24T17:22:51;3.80;;;2.87;;
28958;SDS011;16066;0.000;0.000;2023-06-24T17:25:17;3.20;;;2.90;;
28958;SDS011;16066;0.000;0.000;2023-06-24T17:27:42;5.37;;;2.70;;
28958;SDS011;16066;0.000;0.000;2023-06-24T17:30:08;4.43;;;2.90;;
28958;SDS011;16066;0.000;0.000;2023-06-24T17:32:34;4.90;;;3.00;;
28958;SDS011;16066;0.000;0.000;2023-06-24T17:34:59;3.60;;;2.77;;
28958;SDS011;16066;0.000;0.000;2023-06-24T17:37:25;3.67;;;2.70;;
28958;SDS011;16066;0.000;0.000;2023-06-24T17:39:50;3.07;;;2.57;;
28958;SDS011;16066;0.000;0.000;2023-06-24T17:42:17;3.60;;;2.60;;
28958;SDS011;16066;0.000;0.000;2023-06-24T17:44:42;5.33;;;2.70;;
28958;SDS011;16066;0.000;0.000;2023-06-24T17:47:08;6.70;;;3.00;;
28958;SDS011;16066;0.000;0.000;2023-06-24T17:49:33;6.37;;;3.00;;
28958;SDS011;16066;0.000;0.000;2023-06-24T17:51:59;4.03;;;3.10;;
28958;SDS011;16066;0.000;0.000;2023-06-24T17:54:25;4.20;;;2.90;;
28958;SDS011;16066;0.000;0.000;2023-06-24T17:56:50;5.97;;;2.80;;
28958;SDS011;16066;0.000;0.000;2023-06-24T17:59:16;4.70;;;2.93;;
28958;SDS011;16066;0.000;0.000;2023-06-24T18:01:41;3.30;;;2.57;;
28958;SDS011;16066;0.000;0.000;2023-06-24T18:04:08;2.80;;;2.50;;
28958;SDS011;16066;0.000;0.000;2023-06-24T18:06:33;3.37;;;2.50;;
28958;SDS011;16066;0.000;0.000;2023-06-24T18:08:59;3.30;;;2.80;;
28958;SDS011;16066;0.000;0.000;2023-06-24T18:11:24;4.00;;;2.80;;
28958;SDS011;16066;0.000;0.000;2023-06-24T18:13:50;11.60;;;3.40;;
28958;SDS011;16066;0.000;0.000;2023-06-24T18:16:15;3.40;;;2.50;;
28958;SDS011;16066;0.000;0.000;2023-06-24T18:18:42;7.13;;;2.90;;
28958;SDS011;16066;0.000;0.000;2023-06-24T18:21:08;3.27;;;2.80;;
28958;SDS011;16066;0.000;0.000;2023-06-24T18:23:33;2.53;;;2.10;;
28958;SDS011;16066;0.000;0.000;2023-06-24T18:25:59;2.70;;;2.50;;
28958;SDS011;16066;0.000;0.000;2023-06-24T18:28:24;4.77;;;3.30;;
28958;SDS011;16066;0.000;0.000;2023-06-24T18:30:50;4.43;;;2.87;;
28958;SDS011;16066;0.000;0.000;2023-06-24T18:33:16;4.00;;;2.90;;
28958;SDS011;16066;0.000;0.000;2023-06-24T18:35:42;3.30;;;2.70;;
28958;SDS011;16066;0.000;0.000;2023-06-24T18:38:08;4.80;;;3.20;;
28958;SDS011;16066;0.000;0.000;2023-06-24T18:40:34;3.30;;;2.70;;
28958;SDS011;16066;0.000;0.000;2023-06-24T18:42:59;3.60;;;2.73;;
28958;SDS011;16066;0.000;0.000;2023-06-24T18:45:25;2.97;;;2.57;;
28958;SDS011;16066;0.000;0.000;2023-06-24T18:47:51;3.50;;;2.97;;
28958;SDS011;16066;0.000;0.000;2023-06-24T18:50:18;3.20;;;2.50;;
28958;SDS011;16066;0.000;0.000;2023-06-24T18:52:43;2.93;;;2.63;;
28958;SDS011;16066;0.000;0.000;2023-06-24T18:55:09;2.77;;;2.47;;
28958;SDS011;16066;0.000;0.000;2023-06-24T18:57:34;3.20;;;2.83;;
28958;SDS011;16066;0.000;0.000;2023-06-24T19:00:00;3.17;;;2.87;;
28958;SDS011;16066;0.000;0.000;2023-06-24T19:02:25;3.50;;;2.63;;
28958;SDS011;16066;0.000;0.000;2023-06-24T19:04:50;3.20;;;2.67;;
28958;SDS011;16066;0.000;0.000;2023-06-24T19:07:16;3.20;;;2.60;;
28958;SDS011;16066;0.000;0.000;2023-06-24T19:09:42;3.97;;;3.20;;
28958;SDS011;16066;0.000;0.000;2023-06-24T19:12:07;3.10;;;2.57;;
28958;SDS011;16066;0.000;0.000;2023-06-24T19:14:33;2.90;;;2.40;;
28958;SDS011;16066;0.000;0.000;2023-06-24T19:16:58;3.80;;;2.90;;
28958;SDS011;16066;0.000;0.000;2023-06-24T19:19:23;3.13;;;2.67;;
28958;SDS011;16066;0.000;0.000;2023-06-24T19:21:49;4.23;;;3.00;;
28958;SDS011;16066;0.000;0.000;2023-06-24T19:24:15;3.47;;;2.70;;
28958;SDS011;16066;0.000;0.000;2023-06-24T19:26:41;3.23;;;2.93;;
28958;SDS011;16066;0.000;0.000;2023-06-24T19:29:07;4.37;;;3.13;;
28958;SDS011;16066;0.000;0.000;2023-06-24T19:31:32;3.30;;;2.63;;
28958;SDS011;16066;0.000;0.000;2023-06-24T19:33:58;3.33;;;2.53;;
28958;SDS011;16066;0.000;0.000;2023-06-24T19:36:23;3.97;;;3.00;;
28958;SDS011;16066;0.000;0.000;2023-06-24T19:38:49;6.40;;;3.77;;
28958;SDS011;16066;0.000;0.000;2023-06-24T19:41:15;5.40;;;3.33;;
28958;SDS011;16066;0.000;0.000;2023-06-24T19:43:42;5.73;;;3.50;;
28958;SDS011;16066;0.000;0.000;2023-06-24T19:46:11;4.20;;;3.70;;
28958;SDS011;16066;0.000;0.000;2023-06-24T19:48:37;6.50;;;4.20;;
28958;SDS011;16066;0.000;0.000;2023-06-24T19:51:02;5.60;;;4.17;;
28958;SDS011;16066;0.000;0.000;2023-06-24T19:53:28;8.10;;;4.93;;
28958;SDS011;16066;0.000;0.000;2023-06-24T19:55:53;10.77;;;4.30;;
28958;SDS011;16066;0.000;0.000;2023-06-24T19:58:19;7.60;;;4.67;;
28958;SDS011;16066;0.000;0.000;2023-06-24T20:00:44;7.43;;;4.17;;
28958;SDS011;16066;0.000;0.000;2023-06-24T20:03:10;6.83;;;5.20;;
28958;SDS011;16066;0.000;0.000;2023-06-24T20:05:35;7.10;;;4.63;;
28958;SDS011;16066;0.000;0.000;2023-06-24T20:08:01;5.80;;;4.80;;
28958;SDS011;16066;0.000;0.000;2023-06-24T20:10:29;6.80;;;4.87;;
28958;SDS011;16066;0.000;0.000;2023-06-24T20:12:54;9.00;;;4.50;;
28958;SDS011;16066;0.000;0.000;2023-06-24T20:15:20;8.57;;;4.80;;
28958;SDS011;16066;0.000;0.000;2023-06-24T20:17:45;8.93;;;4.40;;
28958;SDS011;16066;0.000;0.000;2023-06-24T20:20:11;6.20;;;4.50;;
28958;SDS011;16066;0.000;0.000;2023-06-24T20:22:39;8.50;;;5.20;;
28958;SDS011;16066;0.000;0.000;2023-06-24T20:25:05;8.10;;;5.20;;
28958;SDS011;16066;0.000;0.000;2023-06-24T20:27:30;6.60;;;5.17;;
28958;SDS011;16066;0.000;0.000;2023-06-24T20:29:57;7.67;;;5.40;;
28958;SDS011;16066;0.000;0.000;2023-06-24T20:32:22;7.80;;;5.43;;